TimeCDT,TemperatureF,Dew PointF,Humidity,Sea Level PressureIn,VisibilityMPH,Wind Direction,Wind SpeedMPH,Gust SpeedMPH,PrecipitationIn,Events,Conditions,WindDirDegrees,DateUTC
12:15 AM,61.7,59.2,91,30.22,10.0,SE,8.1,-,N/A,,Clear,130,2013-08-04 05:15:00
12:35 AM,61.3,59.2,93,30.21,10.0,ESE,8.1,-,N/A,,Clear,120,2013-08-04 05:35:00
12:55 AM,61.2,59.0,93,30.20,10.0,ESE,9.2,-,N/A,,Clear,110,2013-08-04 05:55:00
1:15 AM,61.2,58.5,91,30.19,10.0,SE,8.1,-,N/A,,Clear,140,2013-08-04 06:15:00
1:35 AM,61.0,58.1,90,30.19,10.0,SE,8.1,-,N/A,,Clear,140,2013-08-04 06:35:00
1:55 AM,60.8,58.1,91,30.18,10.0,SE,6.9,-,N/A,,Clear,140,2013-08-04 06:55:00
2:15 AM,60.8,57.9,90,30.17,10.0,SE,8.1,-,N/A,,Clear,140,2013-08-04 07:15:00
2:35 AM,61.2,58.3,90,30.16,10.0,ESE,8.1,-,N/A,,Mostly Cloudy,120,2013-08-04 07:35:00
2:55 AM,61.7,58.1,88,30.15,10.0,SE,11.5,-,N/A,,Overcast,130,2013-08-04 07:55:00
3:15 AM,61.9,57.9,87,30.15,10.0,SE,11.5,-,N/A,,Overcast,130,2013-08-04 08:15:00
3:35 AM,62.1,57.9,86,30.16,10.0,SE,11.5,-,N/A,,Overcast,130,2013-08-04 08:35:00
3:55 AM,61.9,57.6,86,30.16,10.0,ESE,10.4,-,N/A,,Overcast,120,2013-08-04 08:55:00
4:15 AM,62.2,57.4,84,30.17,10.0,SE,10.4,-,N/A,,Overcast,130,2013-08-04 09:15:00
4:35 AM,62.2,57.6,85,30.17,10.0,SE,9.2,-,N/A,,Overcast,140,2013-08-04 09:35:00
4:55 AM,62.2,57.6,85,30.18,10.0,SE,11.5,-,N/A,,Overcast,140,2013-08-04 09:55:00
5:15 AM,62.2,57.6,85,30.18,10.0,SE,11.5,-,N/A,,Overcast,130,2013-08-04 10:15:00
5:35 AM,61.0,58.6,92,30.18,4.0,SE,17.3,-,N/A,,Drizzle,140,2013-08-04 10:35:00
5:55 AM,60.4,59.0,95,30.17,3.0,SE,13.8,-,N/A,Rain,Light Rain,140,2013-08-04 10:55:00
6:15 AM,60.3,59.2,96,30.18,7.0,SSE,12.7,-,0.01,,Drizzle,150,2013-08-04 11:15:00
6:35 AM,60.3,59.0,96,30.17,4.0,SSE,13.8,-,0.02,Rain,Light Rain,150,2013-08-04 11:35:00
6:55 AM,60.8,59.2,94,30.17,10.0,SSE,9.2,-,0.02,,Overcast,150,2013-08-04 11:55:00
7:15 AM,61.0,59.2,94,30.17,10.0,SE,9.2,-,N/A,,Overcast,140,2013-08-04 12:15:00
7:35 AM,61.3,59.0,92,30.16,10.0,SSE,8.1,-,N/A,,Overcast,150,2013-08-04 12:35:00
7:55 AM,61.9,58.5,89,30.17,10.0,SE,8.1,-,N/A,,Overcast,140,2013-08-04 12:55:00
8:15 AM,62.2,58.5,87,30.17,10.0,SE,5.8,-,N/A,,Overcast,140,2013-08-04 13:15:00
8:35 AM,62.8,58.8,87,30.17,10.0,SSE,5.8,-,N/A,,Overcast,150,2013-08-04 13:35:00
8:55 AM,63.0,58.8,86,30.17,10.0,SE,6.9,-,N/A,Rain,Light Rain,130,2013-08-04 13:55:00
9:15 AM,63.1,59.0,86,30.17,10.0,East,6.9,-,N/A,,Overcast,80,2013-08-04 14:15:00
9:35 AM,62.6,59.7,90,30.17,10.0,ENE,5.8,-,N/A,,Overcast,70,2013-08-04 14:35:00
9:55 AM,61.9,59.7,93,30.16,10.0,East,11.5,-,N/A,,Overcast,90,2013-08-04 14:55:00
10:15 AM,61.7,60.3,95,30.16,10.0,East,12.7,-,N/A,,Overcast,90,2013-08-04 15:15:00
10:35 AM,61.7,59.5,93,30.15,10.0,ESE,13.8,-,N/A,,Overcast,110,2013-08-04 15:35:00
10:55 AM,61.9,59.5,92,30.15,10.0,ESE,12.7,-,N/A,,Overcast,110,2013-08-04 15:55:00
11:15 AM,62.8,59.2,88,30.13,10.0,ESE,12.7,-,N/A,,Overcast,120,2013-08-04 16:15:00
11:35 AM,64.4,59.5,84,30.13,10.0,SE,15.0,-,N/A,,Overcast,130,2013-08-04 16:35:00
11:55 AM,65.3,59.7,82,30.12,10.0,SE,15.0,21.9,N/A,,Overcast,140,2013-08-04 16:55:00
12:15 PM,65.3,59.9,83,30.12,10.0,SE,9.2,-,N/A,,Overcast,140,2013-08-04 17:15:00
12:35 PM,67.3,61.2,81,30.11,10.0,SSE,11.5,-,N/A,,Overcast,150,2013-08-04 17:35:00
12:55 PM,68.2,61.3,79,30.10,10.0,SSE,13.8,-,N/A,,Overcast,150,2013-08-04 17:55:00
1:15 PM,69.4,62.1,77,30.10,10.0,SSE,12.7,19.6,N/A,,Overcast,150,2013-08-04 18:15:00
1:35 PM,71.2,62.8,75,30.09,10.0,SSE,13.8,-,N/A,,Mostly Cloudy,150,2013-08-04 18:35:00
1:55 PM,71.6,63.1,75,30.08,10.0,SSE,11.5,-,N/A,,Mostly Cloudy,160,2013-08-04 18:55:00
2:15 PM,72.3,63.5,74,30.08,10.0,SSE,12.7,-,N/A,,Overcast,160,2013-08-04 19:15:00
2:35 PM,73.0,64.6,75,30.07,10.0,SSE,12.7,-,N/A,,Overcast,160,2013-08-04 19:35:00
2:55 PM,75.4,65.8,72,30.07,10.0,South,11.5,-,N/A,,Mostly Cloudy,170,2013-08-04 19:55:00
3:15 PM,75.4,66.0,73,30.06,10.0,South,10.4,17.3,N/A,,Mostly Cloudy,170,2013-08-04 20:15:00
3:35 PM,77.7,67.6,71,30.06,10.0,South,12.7,-,N/A,,Mostly Cloudy,180,2013-08-04 20:35:00
3:55 PM,77.4,67.1,71,30.05,10.0,SSE,10.4,-,N/A,,Mostly Cloudy,160,2013-08-04 20:55:00
4:15 PM,77.0,66.7,70,30.05,10.0,South,11.5,-,N/A,,Overcast,170,2013-08-04 21:15:00
4:35 PM,76.1,67.1,74,30.04,10.0,SSE,11.5,-,N/A,,Overcast,150,2013-08-04 21:35:00
4:55 PM,75.6,67.3,75,30.04,10.0,SSE,10.4,-,N/A,,Overcast,160,2013-08-04 21:55:00
5:15 PM,75.7,66.9,74,30.04,10.0,SSE,12.7,-,N/A,,Overcast,160,2013-08-04 22:15:00
5:35 PM,76.8,67.3,72,30.03,10.0,SSE,13.8,-,N/A,,Overcast,160,2013-08-04 22:35:00
5:55 PM,75.7,66.7,74,30.03,10.0,SSE,16.1,-,N/A,,Mostly Cloudy,150,2013-08-04 22:55:00
6:15 PM,73.9,66.2,77,30.03,10.0,SSE,13.8,-,N/A,,Overcast,160,2013-08-04 23:15:00
6:35 PM,73.4,66.4,79,30.02,10.0,SSE,12.7,-,N/A,,Mostly Cloudy,150,2013-08-04 23:35:00
6:55 PM,73.6,66.6,79,30.02,10.0,SSE,12.7,-,N/A,,Scattered Clouds,160,2013-08-04 23:55:00
7:15 PM,73.0,66.2,79,30.01,10.0,SSE,13.8,20.7,N/A,,Scattered Clouds,150,2013-08-05 00:15:00
7:35 PM,72.7,66.7,82,30.01,10.0,SSE,10.4,-,N/A,,Scattered Clouds,160,2013-08-05 00:35:00
7:55 PM,72.5,66.2,81,30.00,10.0,South,13.8,-,N/A,,Clear,170,2013-08-05 00:55:00
8:15 PM,72.5,66.6,82,30.00,10.0,South,11.5,17.3,N/A,,Scattered Clouds,170,2013-08-05 01:15:00
8:35 PM,72.5,66.9,83,30.00,10.0,South,12.7,-,N/A,,Overcast,170,2013-08-05 01:35:00
8:55 PM,72.5,67.1,83,29.99,10.0,South,10.4,-,N/A,,Overcast,170,2013-08-05 01:55:00
9:15 PM,71.6,67.1,86,30.00,10.0,South,9.2,-,N/A,,Mostly Cloudy,170,2013-08-05 02:15:00
9:35 PM,70.9,67.1,88,30.01,10.0,South,8.1,-,N/A,,Scattered Clouds,170,2013-08-05 02:35:00
9:55 PM,70.7,67.3,89,30.01,10.0,South,9.2,-,N/A,,Clear,170,2013-08-05 02:55:00
10:15 PM,70.2,67.5,91,30.01,10.0,South,6.9,-,N/A,,Clear,170,2013-08-05 03:15:00
10:35 PM,70.0,67.6,92,30.01,10.0,South,8.1,-,N/A,,Clear,170,2013-08-05 03:35:00
10:55 PM,70.3,68.0,92,30.01,10.0,South,10.4,-,N/A,,Clear,170,2013-08-05 03:55:00
11:15 PM,70.2,68.0,93,30.01,10.0,South,9.2,-,N/A,,Clear,170,2013-08-05 04:15:00
11:35 PM,70.2,68.2,93,30.01,10.0,South,10.4,-,N/A,,Clear,180,2013-08-05 04:35:00
11:55 PM,70.2,68.4,94,30.00,10.0,South,10.4,-,N/A,,Clear,170,2013-08-05 04:55:00